Broken Arrow, OK (74012)

6:26 PM CDT on April 25, 2015 (GMT -0500)
Country Aire | | Change Station
CLOSE
Current Station
Personal Weather Station
Location: Broken Arrow, OK
Elevation: 697 ft
Nearby Weather Stations

Elev 697 ft 36.05 °N, 95.82 °W | Updated 0 second ago

Clear
Clear
80.7 °F
Feels Like 80 °F
N
3.0
Wind Variable Wind from NW
Gusts 12.0 mph

Today
High -- | Low -- °F
--% Chance of Precip.
Yesterday
High -- | Low -- °F
Precip. -- in
6:37 AM 8:05 PM
Waxing Crescent, 50% visible
Pressure 29.60 in
Visibility 10.0 miles
Clouds Clear
Heat Index 80 °F
Dew Point 51 °F
Humidity 36%
Rainfall in
Snow Depth Not available.
UV 0.0 out of 12
Pollen 10.10 out of 12
Air Quality Not available.
Flu Activity Local Activity
METAR KRVS 252253Z 33006KT 10SM CLR 28/09 A2958 RMK AO2 SLP021 T02780094

More Conditions Fewer Conditions

Pressure 29.60 in
Visibility 10.0 miles
Clouds Clear
Heat Index 80 °F
Dew Point 51 °F
Humidity 36%
Rainfall in
Snow Depth Not available.
UV 0.0 out of 12
Pollen 10.10 out of 12
Air Quality Not available.
Flu Activity Local Activity
METAR KRVS 252253Z 33006KT 10SM CLR 28/09 A2958 RMK AO2 SLP021 T02780094

More Conditions Fewer Conditions

10-Day Weather Forecast

Almanac

Astronomy

Apr. 25, 2015 Rise Set
Actual Time
Civil Twilight
Nautical Twilight
Astronomical Twilight
Moon
Length of Visible Light
Length of Day
Tomorrow will be .
, % of the Moon is Illuminated

Today's Extremes

State Highs State Lows

Community

WunderPhotos

Upload Photos

1,816,845 photos uploaded!

WunderBlogs® & News

Nearby

Air Quality

  Air Quality AQ Index Pollutant
Not available.

Snow Depth

Station Depth Elevation

Earthquake Activity

City Distance Mag. Time & Date
Minimum magnitude displayed is 2.5.

Coastal Water Temperatures

Place Temperature

Stations

Nearby Weather Stations

Station Location Temp. Windchill Dew Point Humidity Wind Precip. Elev Updated Type